Glenoma, Washington
Current Conditions -  °F | °C
As of 12:15 PM on Saturday 20 Dec 2014 (Local Time) from KCLS Reporting Station
Light Rain Light Rain  
Wind Chill: 50°   Ceiling: 1400
Heat Index: 50°   Visibility: 10mi
Dew Point: 50°   Wind: 7mph
Humidity: 100%   Direction: 220°SW
Pressure: 29.58"   Gusts: 17mph
Location:  46.51°N, 122.16°W
Report Text: KCLS 202015Z AUTO 22006G15KT 10SM -RA OVC014 10/10 A2958 RMK AO2
Loading
Personal Weather Stations






























Interactive Weather Map New forecast layout! Learn more

10-Day Weather Forecast

Advertisements
Track Severe Weather on mobile